Time;durP1;ratioP1;P1;durP2;ratioP2;P2;SDS_P1;SDS_P2;PMS_P1;PMS_P2;Temp;Humidity;BMP_temperature;BMP_pressure;BME280_temperature;BME280_humidity;BME280_pressure;Samples;Min_cycle;Max_cycle;Signal;HPM_P1;HPM_P2
2023/09/28 00:01:18;;;;;;;0.60;0.60;;;9.50;99.90;;;;;;5134092;27;20193;-75
2023/09/28 00:03:51;;;;;;;0.68;0.68;;;9.50;99.90;;;;;;5134304;27;20569;-74
2023/09/28 00:06:17;;;;;;;0.90;0.90;;;9.50;99.90;;;;;;5134288;27;20201;-75
2023/09/28 00:08:43;;;;;;;0.70;0.70;;;9.60;99.90;;;;;;5134669;27;20270;-74
2023/09/28 00:11:09;;;;;;;0.70;0.70;;;9.60;99.90;;;;;;5115805;27;20550;-75
2023/09/28 00:13:34;;;;;;;0.70;0.70;;;9.60;99.90;;;;;;5134144;27;20352;-75
2023/09/28 00:16:00;;;;;;;0.70;0.70;;;9.60;99.90;;;;;;5134221;27;20282;-75
2023/09/28 00:18:26;;;;;;;0.60;0.60;;;9.50;99.90;;;;;;5133983;27;20709;-74
2023/09/28 00:20:51;;;;;;;0.70;0.70;;;9.60;99.90;;;;;;5134157;27;20187;-75
2023/09/28 00:23:17;;;;;;;0.50;0.50;;;9.60;99.90;;;;;;5115512;27;20662;-74
2023/09/28 00:25:44;;;;;;;0.50;0.50;;;9.50;99.90;;;;;;5133883;27;20179;-75
2023/09/28 00:28:10;;;;;;;0.63;0.63;;;9.50;99.90;;;;;;5115429;27;20700;-75
2023/09/28 00:30:36;;;;;;;0.70;0.70;;;9.40;99.90;;;;;;5133786;27;20193;-74
2023/09/28 00:33:05;;;;;;;0.60;0.60;;;9.40;99.90;;;;;;5133290;27;20198;-75
2023/09/28 00:35:31;;;;;;;0.60;0.60;;;9.50;99.90;;;;;;5133613;27;20194;-75
2023/09/28 00:37:57;;;;;;;0.75;0.75;;;9.50;99.90;;;;;;5133633;27;20198;-75
2023/09/28 00:40:31;;;;;;;0.55;0.55;;;9.50;99.90;;;;;;5133565;27;20202;-75
2023/09/28 00:42:58;;;;;;;0.70;0.70;;;9.60;99.90;;;;;;5115214;27;20604;-74
2023/09/28 00:45:25;;;;;;;0.93;0.93;;;9.60;99.90;;;;;;5133158;27;20206;-76
2023/09/28 00:47:53;;;;;;;0.70;0.70;;;9.60;99.90;;;;;;5115089;27;20191;-76
2023/09/28 00:50:20;;;;;;;0.55;0.55;;;9.70;99.90;;;;;;5133176;27;20195;-76
2023/09/28 00:52:51;;;;;;;0.70;0.70;;;9.70;99.90;;;;;;5133561;27;20195;-76
2023/09/28 00:55:19;;;;;;;0.50;0.50;;;9.80;99.90;;;;;;5115287;27;20230;-75
2023/09/28 00:57:47;;;;;;;0.68;0.68;;;9.80;99.90;;;;;;5133325;27;20199;-76
2023/09/28 01:00:27;;;;;;;0.70;0.70;;;9.80;99.90;;;;;;5133153;27;20190;-75
2023/09/28 01:02:55;;;;;;;0.60;0.60;;;9.90;99.90;;;;;;5132748;27;20202;-76
2023/09/28 01:05:26;;;;;;;0.60;0.60;;;10.00;99.90;;;;;;5132844;27;20195;-76
2023/09/28 01:07:53;;;;;;;1.08;1.08;;;10.00;99.90;;;;;;5114658;27;20568;-76
2023/09/28 01:10:25;;;;;;;0.70;0.70;;;10.00;99.90;;;;;;5132465;27;20194;-76
2023/09/28 01:12:51;;;;;;;0.60;0.60;;;10.10;99.90;;;;;;5132413;27;20225;-78
2023/09/28 01:15:17;;;;;;;28.15;2.78;;;10.10;99.90;;;;;;5132525;27;20198;-78
2023/09/28 01:17:43;;;;;;;0.70;0.70;;;10.10;99.90;;;;;;5114395;28;20201;-78
2023/09/28 01:20:17;;;;;;;0.60;0.60;;;10.20;99.90;;;;;;5133167;28;20236;-78
2023/09/28 01:22:45;;;;;;;0.60;0.60;;;10.20;99.90;;;;;;5114147;28;20666;-78
2023/09/28 01:25:11;;;;;;;0.60;0.60;;;10.20;99.90;;;;;;5114940;28;20191;-78
2023/09/28 01:27:37;;;;;;;0.60;0.60;;;10.20;99.90;;;;;;5114415;28;20190;-79
2023/09/28 01:30:06;;;;;;;0.70;0.70;;;10.20;99.90;;;;;;5132504;28;20233;-78
2023/09/28 01:32:32;;;;;;;0.88;0.88;;;10.20;99.90;;;;;;5114388;28;20198;-78
2023/09/28 01:34:58;;;;;;;1.52;1.42;;;10.20;99.90;;;;;;5132818;28;20235;-79
2023/09/28 01:37:32;;;;;;;0.70;0.70;;;10.30;99.90;;;;;;5132658;28;20270;-78
2023/09/28 01:39:58;;;;;;;0.60;0.60;;;10.30;99.90;;;;;;5132787;28;20641;-78
2023/09/28 01:42:23;;;;;;;0.60;0.60;;;10.30;99.90;;;;;;5132744;28;20239;-79
2023/09/28 01:44:49;;;;;;;0.80;0.80;;;10.40;99.90;;;;;;5132682;28;20198;-79
2023/09/28 01:47:14;;;;;;;1.05;1.05;;;10.40;99.90;;;;;;5132708;28;20222;-78
2023/09/28 01:49:40;;;;;;;0.60;0.60;;;10.40;99.90;;;;;;5132758;28;20264;-78
2023/09/28 01:52:06;;;;;;;0.60;0.60;;;10.40;99.90;;;;;;5132565;28;20194;-77
2023/09/28 01:54:31;;;;;;;0.60;0.60;;;10.50;99.90;;;;;;5122531;28;20192;-75
2023/09/28 01:56:57;;;;;;;0.50;0.50;;;10.50;99.90;;;;;;5093965;28;20228;-75
2023/09/28 01:59:23;;;;;;;0.60;0.60;;;10.50;99.90;;;;;;5111959;28;20187;-75
2023/09/28 02:01:50;;;;;;;0.60;0.60;;;10.50;99.90;;;;;;5093897;28;20196;-74
2023/09/28 02:04:16;;;;;;;0.50;0.50;;;10.50;99.90;;;;;;5093705;28;20582;-74
2023/09/28 02:06:42;;;;;;;0.75;0.73;;;10.50;99.90;;;;;;5111880;28;20188;-74
2023/09/28 02:09:10;;;;;;;0.60;0.60;;;10.50;99.90;;;;;;5112198;28;20271;-75
2023/09/28 02:11:43;;;;;;;0.68;0.68;;;10.50;99.90;;;;;;5111850;28;20180;-75
2023/09/28 02:14:12;;;;;;;0.73;0.73;;;10.50;99.90;;;;;;5127604;28;20727;-75
2023/09/28 02:16:38;;;;;;;0.50;0.50;;;10.50;99.90;;;;;;5132388;28;20206;-75
2023/09/28 02:19:05;;;;;;;0.50;0.50;;;10.50;99.90;;;;;;5132444;28;20202;-75
2023/09/28 02:21:30;;;;;;;0.60;0.60;;;10.50;99.90;;;;;;5132376;28;20278;-74
2023/09/28 02:23:58;;;;;;;0.60;0.60;;;10.50;99.90;;;;;;5132318;28;20286;-75
2023/09/28 02:26:24;;;;;;;0.65;0.65;;;10.60;99.90;;;;;;5135039;27;20674;-75
2023/09/28 02:28:50;;;;;;;0.68;0.63;;;10.60;99.90;;;;;;5117780;27;20223;-74
2023/09/28 02:31:16;;;;;;;0.60;0.60;;;10.60;99.90;;;;;;5117816;27;20190;-76
2023/09/28 02:33:41;;;;;;;0.50;0.50;;;10.60;99.90;;;;;;5117752;27;20559;-74
2023/09/28 02:36:08;;;;;;;0.60;0.60;;;10.60;99.90;;;;;;5136004;27;20191;-75
2023/09/28 02:38:33;;;;;;;0.60;0.60;;;10.60;99.90;;;;;;5135715;27;20609;-75
2023/09/28 02:40:59;;;;;;;0.60;0.60;;;10.60;99.90;;;;;;5117515;27;20194;-75
2023/09/28 02:43:25;;;;;;;0.60;0.60;;;10.70;99.90;;;;;;5117304;27;20627;-75
2023/09/28 02:45:50;;;;;;;0.68;0.68;;;10.70;99.90;;;;;;5117190;27;20218;-75
2023/09/28 02:48:16;;;;;;;0.60;0.60;;;10.70;99.90;;;;;;5136085;27;20600;-75
2023/09/28 02:50:43;;;;;;;0.60;0.60;;;10.70;99.90;;;;;;5138709;27;20200;-75
2023/09/28 02:53:09;;;;;;;4.53;2.30;;;10.70;99.90;;;;;;5156460;27;20186;-75
2023/09/28 02:55:36;;;;;;;0.60;0.60;;;10.80;99.90;;;;;;5138085;27;20201;-74
2023/09/28 02:58:03;;;;;;;0.60;0.60;;;10.70;99.90;;;;;;5156241;27;20197;-74
2023/09/28 03:00:32;;;;;;;0.60;0.60;;;10.80;99.90;;;;;;5152686;27;20202;-75
2023/09/28 03:03:00;;;;;;;0.80;0.80;;;10.80;99.90;;;;;;5134373;27;20669;-74
2023/09/28 03:05:27;;;;;;;0.70;0.70;;;10.80;99.90;;;;;;5135325;27;20563;-74
2023/09/28 03:07:53;;;;;;;0.60;0.60;;;10.80;99.90;;;;;;5135361;27;20673;-74
2023/09/28 03:10:19;;;;;;;0.63;0.63;;;10.90;99.90;;;;;;5117095;27;20631;-74
2023/09/28 03:12:46;;;;;;;0.50;0.50;;;10.90;99.90;;;;;;5135207;27;20239;-75
2023/09/28 03:15:13;;;;;;;0.63;0.63;;;11.00;99.90;;;;;;5135400;27;20187;-74
2023/09/28 03:17:41;;;;;;;0.60;0.60;;;11.00;99.90;;;;;;5116577;27;20203;-75
2023/09/28 03:20:14;;;;;;;0.60;0.60;;;11.00;99.90;;;;;;5135065;27;20692;-75
2023/09/28 03:22:44;;;;;;;0.55;0.55;;;11.00;99.90;;;;;;5133690;27;20206;-75
2023/09/28 03:25:17;;;;;;;0.50;0.50;;;11.10;99.90;;;;;;5116785;27;20190;-75
2023/09/28 03:27:45;;;;;;;0.52;0.52;;;11.10;99.90;;;;;;5116307;27;20195;-75
2023/09/28 03:30:12;;;;;;;0.50;0.50;;;11.20;99.90;;;;;;5116609;27;20199;-75
2023/09/28 03:32:38;;;;;;;0.50;0.50;;;11.20;99.90;;;;;;5116298;27;20256;-74
2023/09/28 03:35:11;;;;;;;0.55;0.55;;;11.20;99.90;;;;;;5134967;27;20601;-76
2023/09/28 03:37:37;;;;;;;0.68;0.68;;;11.20;99.90;;;;;;5133831;27;20219;-77
2023/09/28 03:40:09;;;;;;;0.73;0.73;;;11.30;99.90;;;;;;5134404;27;20729;-79
2023/09/28 03:42:42;;;;;;;0.50;0.50;;;11.20;99.90;;;;;;5134853;27;20235;-78
2023/09/28 03:45:10;;;;;;;0.50;0.50;;;11.20;99.90;;;;;;5114517;27;20681;-78
2023/09/28 03:47:40;;;;;;;0.60;0.60;;;11.30;99.90;;;;;;5099557;28;20683;-78
2023/09/28 03:50:09;;;;;;;0.52;0.52;;;11.20;99.90;;;;;;5093803;28;20279;-77
2023/09/28 03:52:35;;;;;;;0.65;0.65;;;11.30;99.90;;;;;;5131907;27;20191;-77
2023/09/28 03:55:03;;;;;;;0.52;0.52;;;11.30;99.90;;;;;;5116121;27;20194;-78
2023/09/28 03:57:29;;;;;;;0.60;0.60;;;11.30;99.90;;;;;;5134249;27;20259;-78
2023/09/28 03:59:55;;;;;;;0.68;0.68;;;11.30;99.90;;;;;;5134303;27;20319;-78
2023/09/28 04:02:21;;;;;;;0.60;0.60;;;11.30;99.90;;;;;;5115706;27;20721;-78
2023/09/28 04:04:47;;;;;;;0.60;0.60;;;11.30;99.90;;;;;;5115781;27;20246;-78
2023/09/28 04:07:13;;;;;;;0.43;0.43;;;11.40;99.90;;;;;;5133854;27;20199;-78
2023/09/28 04:09:38;;;;;;;0.40;0.40;;;11.40;99.90;;;;;;5134136;27;20223;-78
2023/09/28 04:12:05;;;;;;;0.60;0.60;;;11.50;99.90;;;;;;5134097;27;20221;-77
2023/09/28 04:14:30;;;;;;;0.50;0.50;;;11.50;99.90;;;;;;5133900;27;20274;-77
2023/09/28 04:16:56;;;;;;;0.70;0.63;;;11.50;99.90;;;;;;5130468;27;20667;-76
2023/09/28 04:19:22;;;;;;;0.60;0.60;;;11.60;99.90;;;;;;5113290;28;20196;-77
2023/09/28 04:21:48;;;;;;;0.80;0.80;;;11.60;99.90;;;;;;5113460;28;20191;-77
2023/09/28 04:24:14;;;;;;;1.35;0.98;;;11.60;99.90;;;;;;5113267;28;20567;-78
2023/09/28 04:26:40;;;;;;;0.60;0.60;;;11.60;99.90;;;;;;5095137;28;20669;-76
2023/09/28 04:29:06;;;;;;;0.70;0.70;;;11.70;99.90;;;;;;5095005;28;20192;-77
2023/09/28 04:31:31;;;;;;;0.70;0.70;;;11.70;99.90;;;;;;5094747;28;20278;-77
2023/09/28 04:34:00;;;;;;;0.60;0.60;;;11.70;99.90;;;;;;5113302;28;20202;-77
2023/09/28 04:36:26;;;;;;;0.60;0.60;;;11.70;99.90;;;;;;5112959;28;20195;-78
2023/09/28 04:38:52;;;;;;;0.70;0.70;;;11.80;99.90;;;;;;5113102;28;20195;-76
2023/09/28 04:41:17;;;;;;;0.60;0.60;;;11.80;99.90;;;;;;5113204;28;20199;-77
2023/09/28 04:43:43;;;;;;;0.60;0.60;;;11.80;99.90;;;;;;5099969;28;20264;-74
2023/09/28 04:46:09;;;;;;;0.50;0.50;;;11.90;99.90;;;;;;5080893;28;20246;-74
2023/09/28 04:48:35;;;;;;;0.50;0.50;;;11.90;99.90;;;;;;5091267;28;20200;-74
2023/09/28 04:51:01;;;;;;;0.57;0.57;;;11.90;99.90;;;;;;5104226;27;20194;-74
2023/09/28 04:53:26;;;;;;;0.70;0.70;;;11.90;99.90;;;;;;5133326;27;20195;-74
2023/09/28 04:55:52;;;;;;;0.50;0.50;;;11.90;99.90;;;;;;5115063;27;20226;-74
2023/09/28 04:58:18;;;;;;;0.63;0.63;;;11.90;99.90;;;;;;5133317;27;20708;-75
2023/09/28 05:00:44;;;;;;;0.50;0.50;;;12.00;99.90;;;;;;5133227;27;20214;-74
2023/09/28 05:03:11;;;;;;;0.50;0.50;;;12.00;99.90;;;;;;5114792;27;20203;-74
2023/09/28 05:05:37;;;;;;;0.50;0.50;;;12.00;99.90;;;;;;5132952;27;20578;-74
2023/09/28 05:08:03;;;;;;;0.60;0.60;;;12.00;99.90;;;;;;5133285;27;20661;-74
2023/09/28 05:10:29;;;;;;;0.57;0.57;;;12.00;99.90;;;;;;5133094;27;20193;-74
2023/09/28 05:12:55;;;;;;;0.50;0.50;;;12.10;99.90;;;;;;5131903;27;20232;-75
2023/09/28 05:15:20;;;;;;;0.50;0.50;;;12.10;99.90;;;;;;5112471;28;20195;-76
2023/09/28 05:17:47;;;;;;;0.50;0.50;;;12.10;99.90;;;;;;5112544;28;20203;-75
2023/09/28 05:20:13;;;;;;;0.50;0.50;;;12.10;99.90;;;;;;5111159;28;20616;-76
2023/09/28 05:22:38;;;;;;;0.50;0.50;;;12.20;99.90;;;;;;5112218;28;20274;-75
2023/09/28 05:25:06;;;;;;;0.50;0.50;;;12.20;99.90;;;;;;5111054;28;20291;-75
2023/09/28 05:27:33;;;;;;;1.08;0.93;;;12.20;99.90;;;;;;5112352;28;20191;-75
2023/09/28 05:29:58;;;;;;;23.67;1.58;;;12.20;99.90;;;;;;5112492;28;20211;-75
2023/09/28 05:32:24;;;;;;;0.50;0.50;;;12.20;99.90;;;;;;5112285;28;20238;-75
2023/09/28 05:34:50;;;;;;;0.82;0.82;;;12.20;99.90;;;;;;5112489;28;20679;-75
2023/09/28 05:37:16;;;;;;;14.20;1.15;;;12.20;99.90;;;;;;5094453;28;20195;-75
2023/09/28 05:39:41;;;;;;;0.50;0.50;;;12.10;99.90;;;;;;5101640;28;20321;-75
2023/09/28 05:42:10;;;;;;;0.57;0.57;;;12.20;99.90;;;;;;5091942;28;20216;-77
2023/09/28 05:44:35;;;;;;;0.63;0.63;;;12.30;99.90;;;;;;5091674;28;20682;-75
2023/09/28 05:47:01;;;;;;;0.60;0.60;;;12.30;99.90;;;;;;5109190;28;20215;-74
2023/09/28 05:49:26;;;;;;;0.50;0.50;;;12.20;99.90;;;;;;5112391;28;20206;-75
2023/09/28 05:51:53;;;;;;;0.60;0.60;;;12.30;99.90;;;;;;5125356;28;20191;-75
2023/09/28 05:54:19;;;;;;;0.57;0.57;;;12.40;99.90;;;;;;5113881;28;20613;-75
2023/09/28 05:56:44;;;;;;;0.85;0.80;;;12.40;99.90;;;;;;5132645;27;20194;-75
2023/09/28 05:59:10;;;;;;;0.50;0.50;;;12.40;99.90;;;;;;5131679;27;20267;-75
2023/09/28 06:01:37;;;;;;;0.50;0.50;;;12.40;99.90;;;;;;5136308;27;20197;-74
2023/09/28 06:04:04;;;;;;;0.82;0.82;;;12.50;99.90;;;;;;5135312;27;20766;-74
2023/09/28 06:06:33;;;;;;;0.60;0.60;;;12.50;99.90;;;;;;5135188;27;20191;-75
2023/09/28 06:08:58;;;;;;;0.57;0.57;;;12.50;99.90;;;;;;5136642;27;20221;-75
2023/09/28 06:11:25;;;;;;;0.82;0.82;;;12.50;99.90;;;;;;5118015;27;20199;-75
2023/09/28 06:13:50;;;;;;;0.60;0.60;;;12.50;99.90;;;;;;5118084;27;20195;-75
2023/09/28 06:16:16;;;;;;;0.50;0.50;;;12.60;99.90;;;;;;5117888;27;20685;-75
2023/09/28 06:18:43;;;;;;;1.23;0.73;;;12.60;99.90;;;;;;5136158;27;20198;-75
2023/09/28 06:21:08;;;;;;;0.70;0.70;;;12.60;99.90;;;;;;5136416;27;20194;-75
2023/09/28 06:23:35;;;;;;;1.00;0.90;;;12.70;99.90;;;;;;5117444;27;20199;-75
2023/09/28 06:26:03;;;;;;;0.82;0.82;;;12.70;99.90;;;;;;5136242;27;20191;-75
2023/09/28 06:28:28;;;;;;;0.63;0.63;;;12.70;99.90;;;;;;5130411;27;20200;-75
2023/09/28 06:30:55;;;;;;;0.50;0.50;;;12.70;99.90;;;;;;5097383;28;20565;-75
2023/09/28 06:33:24;;;;;;;0.45;0.45;;;12.90;99.90;;;;;;5097090;28;20202;-76
2023/09/28 06:35:51;;;;;;;0.50;0.50;;;12.90;99.90;;;;;;5096991;28;20610;-76
2023/09/28 06:38:16;;;;;;;0.60;0.60;;;13.00;99.90;;;;;;5115455;28;20184;-75
2023/09/28 06:41:05;;;;;;;0.70;0.70;;;13.00;99.90;;;;;;5097282;28;20624;-75
2023/09/28 06:43:30;;;;;;;0.70;0.70;;;13.00;99.90;;;;;;5114074;28;20230;-75
2023/09/28 06:45:58;;;;;;;0.95;0.77;;;13.00;99.90;;;;;;5115202;28;20227;-75
2023/09/28 06:48:24;;;;;;;0.70;0.70;;;13.10;99.90;;;;;;5114955;28;20750;-75
2023/09/28 06:50:50;;;;;;;0.63;0.63;;;13.20;99.90;;;;;;5119566;27;20666;-76
2023/09/28 06:53:16;;;;;;;0.60;0.60;;;13.30;99.90;;;;;;5135706;27;20197;-76
2023/09/28 06:55:44;;;;;;;1.05;0.95;;;13.30;99.90;;;;;;5135610;27;20269;-76
2023/09/28 06:58:13;;;;;;;0.80;0.80;;;13.40;99.90;;;;;;5135550;27;20723;-76
2023/09/28 07:00:39;;;;;;;0.45;0.45;;;13.50;99.90;;;;;;5135485;27;20201;-76
2023/09/28 07:03:05;;;;;;;0.60;0.60;;;13.50;99.90;;;;;;5135566;27;20205;-76
2023/09/28 07:05:33;;;;;;;0.50;0.50;;;13.60;99.90;;;;;;5135082;27;20262;-79
2023/09/28 07:08:00;;;;;;;0.98;0.98;;;13.60;99.90;;;;;;5135414;27;20184;-78
2023/09/28 07:10:26;;;;;;;1.55;1.40;;;13.60;99.90;;;;;;5116779;27;20191;-78
2023/09/28 07:12:52;;;;;;;23.25;0.93;;;13.70;99.90;;;;;;5134172;27;20210;-78
2023/09/28 07:15:18;;;;;;;0.70;0.70;;;13.80;99.90;;;;;;5116759;27;20571;-78
2023/09/28 07:17:44;;;;;;;0.80;0.80;;;13.80;99.90;;;;;;5135130;27;20257;-78
2023/09/28 07:20:14;;;;;;;1.17;1.08;;;13.80;99.90;;;;;;5116807;27;20191;-79
2023/09/28 07:22:40;;;;;;;0.60;0.60;;;13.90;99.90;;;;;;5135008;27;20198;-78
2023/09/28 07:25:07;;;;;;;0.50;0.50;;;14.00;99.90;;;;;;5127228;27;20689;-79
2023/09/28 07:27:32;;;;;;;1.00;0.77;;;14.00;99.90;;;;;;5114422;28;20624;-78
2023/09/28 07:29:59;;;;;;;1.10;1.00;;;14.10;99.90;;;;;;5114498;28;20237;-79
2023/09/28 07:32:26;;;;;;;0.80;0.80;;;14.10;99.90;;;;;;5114039;28;20244;-78
2023/09/28 07:34:52;;;;;;;0.80;0.80;;;14.10;99.90;;;;;;5096051;28;20706;-79
2023/09/28 07:37:18;;;;;;;0.88;0.63;;;14.20;99.90;;;;;;5096023;28;20235;-79
2023/09/28 07:39:44;;;;;;;0.60;0.60;;;14.10;99.90;;;;;;5114348;28;20199;-78
2023/09/28 07:42:10;;;;;;;0.95;0.90;;;14.20;99.90;;;;;;5095980;28;20203;-79
2023/09/28 07:44:35;;;;;;;0.68;0.68;;;14.20;99.90;;;;;;5114093;28;20282;-74
2023/09/28 07:47:02;;;;;;;1.48;1.02;;;14.30;99.90;;;;;;5114011;28;20554;-75
2023/09/28 07:49:28;;;;;;;0.88;0.70;;;14.30;99.90;;;;;;5113840;28;20193;-74
2023/09/28 07:51:55;;;;;;;0.57;0.57;;;14.30;99.90;;;;;;5140853;27;20194;-74
2023/09/28 07:54:21;;;;;;;0.90;0.90;;;14.40;99.90;;;;;;5155149;27;20194;-74
2023/09/28 07:56:47;;;;;;;0.50;0.50;;;14.50;99.90;;;;;;5155148;27;20265;-74
2023/09/28 07:59:13;;;;;;;0.80;0.80;;;14.50;99.90;;;;;;5155273;27;20277;-74
2023/09/28 08:01:42;;;;;;;3.50;1.90;;;14.60;99.90;;;;;;5153786;27;20252;-75
2023/09/28 08:04:08;;;;;;;0.70;0.68;;;14.60;99.90;;;;;;5134303;27;20214;-74
2023/09/28 08:06:35;;;;;;;1.10;0.80;;;14.80;99.90;;;;;;5134024;27;20323;-75
2023/09/28 08:09:01;;;;;;;0.60;0.60;;;14.80;99.90;;;;;;5134376;27;20615;-75
2023/09/28 08:11:27;;;;;;;0.50;0.50;;;14.90;99.90;;;;;;5134108;27;20275;-75
2023/09/28 08:13:52;;;;;;;0.57;0.57;;;14.90;99.90;;;;;;5134202;27;20206;-79
2023/09/28 08:16:18;;;;;;;1.95;1.17;;;15.10;99.90;;;;;;5133921;27;20270;-78
2023/09/28 08:18:46;;;;;;;0.73;0.73;;;15.20;99.90;;;;;;5134003;27;20190;-78
2023/09/28 08:21:12;;;;;;;0.40;0.40;;;15.40;99.90;;;;;;5133919;27;20661;-79
2023/09/28 08:23:37;;;;;;;1.58;1.10;;;15.40;99.90;;;;;;5133482;27;20215;-79
2023/09/28 08:26:12;;;;;;;0.60;0.60;;;15.50;99.90;;;;;;5115446;27;20234;-78
2023/09/28 08:28:38;;;;;;;0.65;0.65;;;15.40;99.90;;;;;;5102875;28;20225;-78
2023/09/28 08:31:04;;;;;;;0.50;0.50;;;15.50;99.90;;;;;;5113171;28;20188;-79
2023/09/28 08:33:30;;;;;;;0.73;0.52;;;15.60;99.90;;;;;;5113238;28;20211;-79
2023/09/28 08:35:55;;;;;;;2.20;1.63;;;15.60;99.90;;;;;;5113154;28;20187;-79
2023/09/28 08:38:21;;;;;;;0.68;0.68;;;15.70;99.90;;;;;;5112798;28;20191;-78
2023/09/28 08:40:49;;;;;;;0.50;0.50;;;15.80;99.90;;;;;;5113108;28;20658;-78
2023/09/28 08:43:20;;;;;;;1.08;0.98;;;15.90;99.90;;;;;;5094952;28;20256;-79
2023/09/28 08:45:50;;;;;;;0.80;0.68;;;16.00;99.90;;;;;;5112882;28;20267;-78
2023/09/28 08:48:21;;;;;;;0.75;0.75;;;16.00;99.90;;;;;;5131969;27;20244;-79
2023/09/28 08:50:50;;;;;;;2.45;0.98;;;16.00;99.90;;;;;;5133199;27;20319;-78
2023/09/28 08:53:17;;;;;;;1.67;1.40;;;16.20;99.90;;;;;;5131349;27;20645;-73
2023/09/28 08:55:43;;;;;;;1.00;0.90;;;16.30;99.90;;;;;;5112645;28;20295;-78
2023/09/28 08:58:11;;;;;;;0.60;0.60;;;16.50;99.90;;;;;;5115166;27;20243;-79
2023/09/28 09:00:38;;;;;;;0.63;0.63;;;17.00;99.90;;;;;;5133220;27;20190;-79
2023/09/28 09:03:06;;;;;;;0.75;0.75;;;17.30;99.90;;;;;;5133172;27;20203;-79
2023/09/28 09:05:32;;;;;;;1.48;0.70;;;17.30;99.90;;;;;;5114605;27;20289;-79
2023/09/28 09:08:01;;;;;;;0.55;0.55;;;17.30;99.90;;;;;;5133072;27;20214;-79
2023/09/28 09:10:28;;;;;;;0.45;0.45;;;17.60;99.90;;;;;;5132935;27;20613;-79
2023/09/28 09:12:56;;;;;;;1.52;1.10;;;17.80;99.90;;;;;;5133017;27;20703;-79
2023/09/28 09:15:22;;;;;;;0.95;0.90;;;17.90;99.90;;;;;;5132916;27;20624;-79
2023/09/28 09:17:58;;;;;;;0.63;0.63;;;17.90;99.90;;;;;;5133174;27;20217;-79
2023/09/28 09:20:27;;;;;;;0.85;0.85;;;17.60;99.90;;;;;;5114844;27;20193;-79
2023/09/28 09:22:53;;;;;;;1.00;0.90;;;17.40;99.90;;;;;;5132854;27;20191;-79
2023/09/28 09:25:19;;;;;;;0.82;0.60;;;17.20;99.90;;;;;;5116928;27;20625;-78
2023/09/28 09:27:45;;;;;;;0.80;0.80;;;17.10;99.90;;;;;;5094016;28;20283;-79
2023/09/28 09:30:55;;;;;;;0.65;0.65;;;17.20;99.90;;;;;;5112386;28;20321;-78
2023/09/28 09:33:19;;;;;;;2.90;1.35;;;17.10;99.90;;;;;;5111472;28;20207;-79
2023/09/28 09:35:45;;;;;;;0.57;0.57;;;16.90;99.90;;;;;;5096590;28;20249;-80
2023/09/28 09:38:10;;;;;;;1.52;0.90;;;17.00;99.90;;;;;;5116521;28;20205;-79
2023/09/28 09:40:36;;;;;;;1.45;1.15;;;17.10;99.90;;;;;;5116535;28;20714;-79
2023/09/28 09:43:06;;;;;;;1.30;0.90;;;17.20;99.90;;;;;;5122744;27;20194;-79
2023/09/28 09:45:37;;;;;;;0.50;0.50;;;17.30;99.90;;;;;;5136624;27;20701;-79
2023/09/28 09:48:06;;;;;;;1.75;0.68;;;17.20;99.90;;;;;;5137377;27;20737;-79
2023/09/28 09:50:35;;;;;;;0.60;0.60;;;17.40;99.90;;;;;;5114288;27;20285;-79
2023/09/28 09:53:04;;;;;;;0.65;0.65;;;17.50;99.90;;;;;;5077848;28;20196;-79
2023/09/28 09:55:31;;;;;;;0.73;0.73;;;17.70;99.90;;;;;;5107464;28;20728;-80
2023/09/28 09:58:03;;;;;;;0.73;0.70;;;17.70;99.90;;;;;;5116287;28;20202;-80
2023/09/28 10:00:31;;;;;;;1.05;0.95;;;17.60;99.90;;;;;;5116037;28;20195;-80
2023/09/28 10:03:00;;;;;;;0.40;0.40;;;17.50;99.90;;;;;;5098010;28;20202;-79
2023/09/28 10:05:29;;;;;;;0.60;0.60;;;17.70;99.90;;;;;;5115234;28;20236;-79
2023/09/28 10:07:57;;;;;;;1.45;1.10;;;17.70;99.90;;;;;;5115920;28;20224;-79
2023/09/28 10:10:27;;;;;;;0.82;0.77;;;17.80;99.90;;;;;;5115717;28;20191;-79
2023/09/28 10:12:54;;;;;;;0.50;0.50;;;17.60;99.90;;;;;;5097623;28;20193;-79
2023/09/28 10:15:21;;;;;;;1.33;0.80;;;17.80;99.90;;;;;;5115964;28;20553;-78
2023/09/28 10:17:48;;;;;;;0.47;0.47;;;17.80;99.90;;;;;;5115694;28;20191;-78
2023/09/28 10:20:15;;;;;;;1.83;0.73;;;17.80;99.90;;;;;;5115577;28;20183;-78
2023/09/28 10:22:43;;;;;;;0.90;0.80;;;17.90;99.90;;;;;;5115460;28;20187;-78
2023/09/28 10:25:15;;;;;;;0.50;0.50;;;18.20;99.90;;;;;;5115594;28;20244;-79
2023/09/28 10:27:47;;;;;;;0.57;0.57;;;18.70;99.90;;;;;;5115470;28;20188;-78
2023/09/28 10:30:20;;;;;;;0.93;0.93;;;18.90;99.90;;;;;;5097455;28;20192;-78
2023/09/28 10:32:50;;;;;;;20.70;1.08;;;18.90;99.90;;;;;;5115628;28;20192;-79
2023/09/28 10:35:31;;;;;;;0.75;0.75;;;18.80;99.90;;;;;;5097368;28;20195;-79
2023/09/28 10:38:22;;;;;;;0.45;0.45;;;19.00;99.90;;;;;;5115558;28;20195;-78
2023/09/28 10:40:57;;;;;;;1.42;0.90;;;18.90;99.90;;;;;;5115440;28;20707;-78
2023/09/28 10:43:32;;;;;;;0.88;0.82;;;19.10;99.90;;;;;;5115061;28;20289;-78
2023/09/28 10:46:03;;;;;;;0.70;0.70;;;19.10;99.90;;;;;;5123322;27;20267;-78
2023/09/28 10:48:39;;;;;;;1.25;1.15;;;19.20;99.90;;;;;;5135623;27;20653;-78
2023/09/28 10:51:13;;;;;;;2.63;1.25;;;19.20;99.90;;;;;;5135337;27;20289;-78
2023/09/28 10:53:39;;;;;;;0.95;0.93;;;19.00;99.90;;;;;;5135818;27;20569;-78
2023/09/28 10:56:08;;;;;;;0.55;0.55;;;19.00;99.90;;;;;;5135735;27;20555;-75
2023/09/28 10:58:34;;;;;;;13.85;0.98;;;19.00;99.90;;;;;;5117154;27;20665;-77
2023/09/28 11:01:07;;;;;;;0.57;0.40;;;19.10;99.90;;;;;;5117475;27;20800;-77
2023/09/28 11:03:34;;;;;;;0.52;0.52;;;19.10;99.90;;;;;;5117028;27;20678;-78
2023/09/28 11:06:01;;;;;;;1.08;0.65;;;19.30;99.90;;;;;;5135689;27;20191;-79
2023/09/28 11:08:27;;;;;;;0.70;0.70;;;19.30;99.90;;;;;;5135523;27;20248;-78
2023/09/28 11:10:55;;;;;;;0.60;0.60;;;19.30;99.90;;;;;;5135610;27;20705;-77
2023/09/28 11:13:21;;;;;;;0.55;0.55;;;19.10;99.90;;;;;;5116995;27;20201;-77
2023/09/28 11:15:49;;;;;;;0.45;0.45;;;19.20;99.90;;;;;;5116969;27;20195;-78
2023/09/28 11:18:17;;;;;;;1.30;1.08;;;19.40;99.90;;;;;;5135283;27;20209;-77
2023/09/28 11:20:44;;;;;;;0.60;0.60;;;19.80;99.90;;;;;;5135107;27;20689;-77
2023/09/28 11:23:13;;;;;;;0.57;0.57;;;20.10;99.90;;;;;;5135190;27;20198;-79
2023/09/28 11:25:44;;;;;;;0.63;0.63;;;20.50;99.90;;;;;;5116811;27;20866;-81
2023/09/28 11:28:11;;;;;;;0.50;0.43;;;20.60;99.90;;;;;;5116897;27;20201;-79
2023/09/28 11:30:37;;;;;;;1.75;1.13;;;20.70;99.90;;;;;;5135107;27;20187;-78
2023/09/28 11:33:04;;;;;;;1.35;0.95;;;20.90;99.90;;;;;;5135179;27;20195;-78
2023/09/28 11:35:31;;;;;;;0.63;0.63;;;20.50;99.90;;;;;;5134902;27;20195;-78
2023/09/28 11:38:02;;;;;;;1.38;1.20;;;20.50;99.90;;;;;;5134945;27;20190;-78
2023/09/28 11:40:29;;;;;;;21.60;1.25;;;20.50;99.90;;;;;;5134789;27;20194;-78
2023/09/28 11:42:59;;;;;;;2.25;1.33;;;20.50;99.90;;;;;;5134753;27;20206;-78
2023/09/28 11:45:31;;;;;;;1.05;0.85;;;20.20;99.90;;;;;;5116288;27;20222;-76
2023/09/28 11:47:57;;;;;;;1.33;1.23;;;20.10;99.90;;;;;;5134278;27;20206;-76
2023/09/28 11:50:27;;;;;;;1.33;0.70;;;20.10;99.90;;;;;;5134980;27;20391;-77
2023/09/28 11:52:53;;;;;;;0.88;0.88;;;20.10;99.90;;;;;;5155600;27;20200;-77
2023/09/28 11:55:19;;;;;;;0.80;0.80;;;20.40;99.90;;;;;;5155301;27;20273;-77
2023/09/28 11:57:46;;;;;;;0.50;0.50;;;20.50;99.90;;;;;;5154677;27;20190;-77
2023/09/28 12:00:18;;;;;;;0.70;0.70;;;20.60;99.90;;;;;;5136728;27;20285;-77
2023/09/28 12:02:46;;;;;;;1.25;0.90;;;20.50;99.90;;;;;;5155259;27;20186;-77
2023/09/28 12:05:13;;;;;;;0.88;0.88;;;20.50;99.90;;;;;;5155149;27;20644;-77
2023/09/28 12:07:40;;;;;;;0.60;0.60;;;20.50;99.90;;;;;;5154971;27;20217;-76
2023/09/28 12:10:17;;;;;;;2.30;1.38;;;20.60;99.90;;;;;;5155093;27;20190;-77
2023/09/28 12:12:44;;;;;;;0.55;0.55;;;20.50;99.90;;;;;;5150417;27;20186;-75
2023/09/28 12:15:14;;;;;;;0.68;0.68;;;20.20;99.90;;;;;;5134500;27;20193;-72
2023/09/28 12:17:41;;;;;;;0.98;0.90;;;20.20;99.90;;;;;;5134419;27;20983;-73
2023/09/28 12:20:09;;;;;;;2.72;1.65;;;20.10;99.90;;;;;;5115604;27;20197;-73
2023/09/28 12:22:36;;;;;;;1.33;1.13;;;20.10;99.90;;;;;;5134127;27;20240;-73
2023/09/28 12:25:04;;;;;;;1.02;0.88;;;20.30;99.90;;;;;;5133978;27;20688;-74
2023/09/28 12:27:31;;;;;;;2.05;1.30;;;20.30;99.90;;;;;;5133906;27;20187;-73
2023/09/28 12:29:56;;;;;;;0.93;0.88;;;20.40;99.90;;;;;;5133854;27;20218;-73
2023/09/28 12:32:22;;;;;;;3.58;1.33;;;20.50;99.90;;;;;;5114386;27;20222;-73
2023/09/28 12:34:48;;;;;;;1.15;0.60;;;20.50;99.90;;;;;;5134022;27;20190;-74
2023/09/28 12:37:13;;;;;;;3.42;1.83;;;20.30;99.90;;;;;;5133955;27;20214;-74
2023/09/28 12:39:39;;;;;;;0.60;0.60;;;20.30;99.90;;;;;;5133710;27;20233;-73
2023/09/28 12:42:05;;;;;;;1.10;0.90;;;20.20;99.90;;;;;;5133819;27;20194;-75
2023/09/28 12:44:33;;;;;;;14.02;1.58;;;20.20;99.90;;;;;;5132972;27;20673;-74
2023/09/28 12:46:59;;;;;;;1.27;0.90;;;20.20;99.90;;;;;;5111745;28;20234;-74
2023/09/28 12:49:25;;;;;;;0.77;0.77;;;20.20;99.90;;;;;;5113073;28;20191;-73